createdAt,value
2019-06-26T00:00:58.741Z,12.23
2019-06-26T00:03:27.571Z,12.20
2019-06-26T00:05:56.460Z,14.33
2019-06-26T00:08:25.367Z,12.40
2019-06-26T00:10:54.254Z,13.73
2019-06-26T00:13:26.706Z,13.33
2019-06-26T00:15:51.958Z,12.77
2019-06-26T00:18:20.628Z,13.17
2019-06-26T00:20:48.086Z,11.97
2019-06-26T00:23:16.986Z,11.57
2019-06-26T00:25:45.810Z,13.30
2019-06-26T00:28:14.650Z,13.43
2019-06-26T00:30:43.462Z,10.18
2019-06-26T00:33:12.286Z,14.13
2019-06-26T00:35:41.114Z,11.67
2019-06-26T00:38:09.970Z,10.20
2019-06-26T00:40:38.794Z,10.53
2019-06-26T00:43:07.737Z,10.03
2019-06-26T00:45:36.550Z,10.87
2019-06-26T00:48:05.522Z,13.10
2019-06-26T00:50:34.426Z,10.27
2019-06-26T00:53:03.980Z,11.17
2019-06-26T00:55:32.848Z,12.37
2019-06-26T00:58:01.678Z,11.10
2019-06-26T01:00:31.330Z,11.77
2019-06-26T01:03:00.143Z,13.47
2019-06-26T01:05:28.974Z,10.67
2019-06-26T01:07:57.791Z,13.40
2019-06-26T01:10:26.603Z,13.93
2019-06-26T01:12:55.436Z,15.13
2019-06-26T01:15:22.914Z,12.40
2019-06-26T01:17:51.720Z,13.27
2019-06-26T01:20:20.553Z,17.20
2019-06-26T01:22:49.226Z,13.13
2019-06-26T01:25:16.693Z,14.33
2019-06-26T01:27:44.968Z,10.87
2019-06-26T01:30:12.444Z,10.07
2019-06-26T01:32:40.109Z,12.10
2019-06-26T01:35:07.726Z,10.30
2019-06-26T01:37:36.347Z,8.93
2019-06-26T01:40:04.529Z,9.50
2019-06-26T01:42:32.105Z,8.63
2019-06-26T01:44:59.560Z,9.13
2019-06-26T01:47:28.249Z,15.30
2019-06-26T01:49:55.715Z,10.37
2019-06-26T01:52:24.693Z,14.03
2019-06-26T01:54:53.300Z,9.77
2019-06-26T01:57:20.758Z,10.93
2019-06-26T01:59:49.595Z,8.17
2019-06-26T02:02:18.249Z,12.07
2019-06-26T02:04:45.817Z,10.87
2019-06-26T02:07:14.600Z,11.53
2019-06-26T02:09:42.263Z,7.40
2019-06-26T02:12:11.050Z,10.83
2019-06-26T02:14:39.751Z,10.57
2019-06-26T02:17:07.249Z,7.33
2019-06-26T02:19:35.590Z,7.83
2019-06-26T02:22:03.573Z,8.20
2019-06-26T02:24:32.175Z,11.53
2019-06-26T02:27:00.784Z,12.37
2019-06-26T02:29:29.025Z,12.60
2019-06-26T02:31:57.665Z,13.17
2019-06-26T02:34:25.133Z,10.97
2019-06-26T02:36:52.589Z,7.33
2019-06-26T02:39:20.107Z,10.97
2019-06-26T02:41:47.585Z,12.13
2019-06-26T02:44:15.824Z,14.27
2019-06-26T02:46:43.276Z,10.47
2019-06-26T02:49:10.749Z,8.63
2019-06-26T02:51:38.219Z,12.63
2019-06-26T02:54:07.236Z,11.33
2019-06-26T02:56:34.791Z,9.70
2019-06-26T02:59:04.542Z,9.63
2019-06-26T03:01:32.784Z,8.90
2019-06-26T03:04:00.342Z,11.30
2019-06-26T03:06:27.818Z,9.73
2019-06-26T03:08:56.713Z,9.07
2019-06-26T03:11:25.600Z,10.43
2019-06-26T03:13:54.491Z,8.80
2019-06-26T03:16:23.391Z,10.03
2019-06-26T03:18:52.288Z,10.00
2019-06-26T03:21:21.135Z,11.70
2019-06-26T03:23:49.978Z,12.03
2019-06-26T03:26:18.967Z,10.40
2019-06-26T03:28:47.786Z,13.17
2019-06-26T03:31:16.669Z,9.40
2019-06-26T03:33:45.501Z,13.83
2019-06-26T03:36:14.455Z,12.37
2019-06-26T03:38:43.287Z,16.20
2019-06-26T03:41:12.098Z,10.87
2019-06-26T03:43:41.038Z,11.17
2019-06-26T03:46:09.924Z,10.10
2019-06-26T03:48:38.826Z,15.30
2019-06-26T03:51:07.641Z,13.90
2019-06-26T03:53:36.510Z,13.80
2019-06-26T03:56:05.416Z,10.80
2019-06-26T03:58:34.248Z,14.63
2019-06-26T04:01:03.807Z,14.00
2019-06-26T04:03:32.625Z,14.97
2019-06-26T04:06:01.456Z,15.20
2019-06-26T04:08:30.313Z,15.87
2019-06-26T04:10:59.190Z,13.70
2019-06-26T04:13:27.987Z,14.37
2019-06-26T04:15:56.791Z,15.23
2019-06-26T04:18:25.604Z,14.20
2019-06-26T04:20:54.430Z,16.23
2019-06-26T04:23:23.301Z,21.80
2019-06-26T04:25:52.108Z,12.37
2019-06-26T04:28:21.052Z,15.30
2019-06-26T04:30:49.927Z,18.30
2019-06-26T04:33:18.740Z,14.77
2019-06-26T04:35:47.612Z,13.87
2019-06-26T04:38:15.126Z,16.80
2019-06-26T04:40:43.941Z,16.70
2019-06-26T04:43:12.879Z,18.93
2019-06-26T04:45:54.153Z,16.43
2019-06-26T04:48:10.548Z,19.00
2019-06-26T04:50:39.391Z,20.23
2019-06-26T04:53:08.242Z,20.10
2019-06-26T04:55:37.246Z,18.93
2019-06-26T04:58:06.095Z,27.27
2019-06-26T05:00:34.957Z,19.10
2019-06-26T05:03:03.954Z,24.08
2019-06-26T05:05:39.506Z,25.77
2019-06-26T05:07:59.091Z,21.53
2019-06-26T05:10:27.327Z,25.90
2019-06-26T05:12:56.018Z,23.60
2019-06-26T05:15:24.924Z,22.77
2019-06-26T05:17:53.793Z,21.93
2019-06-26T05:20:22.609Z,23.50
2019-06-26T05:22:51.534Z,22.80
2019-06-26T05:25:19.788Z,16.77
2019-06-26T05:27:48.597Z,17.03
2019-06-26T05:30:17.500Z,18.77
2019-06-26T05:32:46.501Z,16.93
2019-06-26T05:35:15.316Z,17.50
2019-06-26T05:37:44.168Z,19.83
2019-06-26T05:40:12.994Z,16.20
2019-06-26T05:42:42.048Z,14.43
2019-06-26T05:45:10.867Z,21.13
2019-06-26T05:47:39.722Z,18.57
2019-06-26T05:50:08.567Z,16.00
2019-06-26T05:52:37.417Z,14.30
2019-06-26T05:55:06.291Z,14.53
2019-06-26T05:57:35.109Z,18.80
2019-06-26T06:00:05.480Z,16.70
2019-06-26T06:02:34.331Z,15.27
2019-06-26T06:05:04.565Z,15.37
2019-06-26T06:07:33.448Z,17.30
2019-06-26T06:10:02.294Z,16.87
2019-06-26T06:12:31.082Z,14.73
2019-06-26T06:14:59.899Z,15.20
2019-06-26T06:17:28.703Z,15.20
2019-06-26T06:19:57.523Z,14.43
2019-06-26T06:22:27.515Z,12.70
2019-06-26T06:24:55.316Z,11.83
2019-06-26T06:27:24.132Z,13.90
2019-06-26T06:29:52.966Z,10.13
2019-06-26T06:32:21.813Z,10.77
2019-06-26T06:34:50.637Z,8.40
2019-06-26T06:37:19.442Z,9.17
2019-06-26T06:39:48.260Z,9.20
2019-06-26T06:42:17.157Z,9.70
2019-06-26T06:44:44.634Z,8.23
2019-06-26T06:47:12.896Z,7.83
2019-06-26T06:49:40.374Z,7.60
2019-06-26T06:52:07.953Z,8.37
2019-06-26T06:54:35.394Z,9.13
2019-06-26T06:57:04.278Z,9.00
2019-06-26T06:59:33.090Z,8.17
2019-06-26T07:02:01.911Z,7.80
2019-06-26T07:04:30.725Z,9.30
2019-06-26T07:06:59.525Z,7.37
2019-06-26T07:09:28.332Z,7.20
2019-06-26T07:11:57.246Z,7.70
2019-06-26T07:14:26.047Z,7.17
2019-06-26T07:16:54.942Z,7.00
2019-06-26T07:19:23.829Z,8.67
2019-06-26T07:21:52.636Z,8.40
2019-06-26T07:24:21.448Z,8.10
2019-06-26T07:26:50.315Z,7.20
2019-06-26T07:29:19.191Z,7.40
2019-06-26T07:31:48.010Z,7.47
2019-06-26T07:34:16.800Z,7.07
2019-06-26T07:36:45.622Z,6.50
2019-06-26T07:39:14.579Z,7.30
2019-06-26T07:41:43.473Z,7.67
2019-06-26T07:44:12.376Z,7.87
2019-06-26T07:46:41.141Z,8.33
2019-06-26T07:49:09.957Z,13.27
2019-06-26T07:51:38.774Z,9.90
2019-06-26T07:54:07.647Z,11.07
2019-06-26T07:56:36.477Z,12.57
2019-06-26T07:59:05.277Z,10.33
2019-06-26T08:01:34.077Z,10.23
2019-06-26T08:04:03.925Z,13.47
2019-06-26T08:06:32.833Z,12.63
2019-06-26T08:09:01.723Z,13.73
2019-06-26T08:11:30.541Z,11.13
2019-06-26T08:13:59.346Z,13.07
2019-06-26T08:16:28.281Z,13.47
2019-06-26T08:18:55.758Z,13.10
2019-06-26T08:21:23.226Z,13.43
2019-06-26T08:23:51.527Z,12.50
2019-06-26T08:26:20.118Z,15.87
2019-06-26T08:28:48.728Z,16.00
2019-06-26T08:31:17.565Z,13.03
2019-06-26T08:33:46.477Z,13.33
2019-06-26T08:36:15.458Z,15.67
2019-06-26T08:38:42.926Z,16.27
2019-06-26T08:41:10.397Z,15.13
2019-06-26T08:43:37.881Z,15.33
2019-06-26T08:46:06.693Z,14.60
2019-06-26T08:48:39.969Z,14.70
2019-06-26T08:51:04.656Z,18.20
2019-06-26T08:53:33.465Z,14.67
2019-06-26T08:56:03.017Z,17.13
2019-06-26T08:58:31.830Z,14.30
2019-06-26T09:01:00.733Z,14.43
2019-06-26T09:03:29.637Z,13.87
2019-06-26T09:05:58.461Z,14.63
2019-06-26T09:08:27.326Z,12.07
2019-06-26T09:10:56.174Z,13.37
2019-06-26T09:13:25.018Z,13.03
2019-06-26T09:15:53.840Z,12.10
2019-06-26T09:18:34.819Z,12.47
2019-06-26T09:20:50.142Z,11.73
2019-06-26T09:23:17.605Z,14.53
2019-06-26T09:25:45.183Z,11.03
2019-06-26T09:28:12.670Z,14.47
2019-06-26T09:30:40.907Z,12.77
2019-06-26T09:33:09.714Z,13.00
2019-06-26T09:35:38.518Z,14.10
2019-06-26T09:38:07.673Z,10.07
2019-06-26T09:40:36.500Z,10.57
2019-06-26T09:43:04.064Z,10.67
2019-06-26T09:45:31.524Z,12.33
2019-06-26T09:48:00.336Z,8.70
2019-06-26T09:50:27.801Z,9.37
2019-06-26T09:52:56.041Z,9.23
2019-06-26T09:55:23.513Z,12.90
2019-06-26T09:57:50.980Z,9.77
2019-06-26T10:00:19.825Z,8.00
2019-06-26T10:02:48.656Z,5.93
2019-06-26T10:05:17.058Z,5.97
2019-06-26T10:07:45.956Z,8.87
2019-06-26T10:10:14.644Z,7.40
2019-06-26T10:12:42.132Z,10.80
2019-06-26T10:15:10.472Z,8.80
2019-06-26T10:17:37.976Z,11.30
2019-06-26T10:20:06.379Z,7.90
2019-06-26T10:22:34.989Z,7.67
2019-06-26T10:25:03.429Z,8.33
2019-06-26T10:27:31.654Z,7.17
2019-06-26T10:29:59.133Z,9.47
2019-06-26T10:32:26.611Z,12.53
2019-06-26T10:34:54.232Z,6.77
2019-06-26T10:37:21.699Z,9.07
2019-06-26T10:39:50.317Z,7.50
2019-06-26T10:42:19.235Z,6.43
2019-06-26T10:44:46.782Z,8.13
2019-06-26T10:47:14.229Z,8.40
2019-06-26T10:49:41.693Z,9.20
2019-06-26T10:52:10.628Z,6.13
2019-06-26T10:54:39.221Z,7.93
2019-06-26T10:57:07.842Z,6.87
2019-06-26T10:59:36.479Z,8.80
2019-06-26T11:02:04.739Z,5.87
2019-06-26T11:04:33.351Z,6.33
2019-06-26T11:07:00.809Z,8.43
2019-06-26T11:09:28.270Z,7.00
2019-06-26T11:11:55.751Z,6.77
2019-06-26T11:14:24.411Z,6.50
2019-06-26T11:16:52.002Z,5.97
2019-06-26T11:19:20.235Z,6.87
2019-06-26T11:21:47.713Z,6.97
2019-06-26T11:24:15.175Z,6.03
2019-06-26T11:26:42.655Z,9.80
2019-06-26T11:29:10.113Z,6.80
2019-06-26T11:31:37.572Z,7.97
2019-06-26T11:34:05.043Z,5.73
2019-06-26T11:36:32.605Z,5.30
2019-06-26T11:39:00.152Z,8.10
2019-06-26T11:41:27.729Z,6.47
2019-06-26T11:43:56.708Z,7.47
2019-06-26T11:46:24.187Z,6.97
2019-06-26T11:48:51.749Z,10.17
2019-06-26T11:51:19.264Z,4.43
2019-06-26T11:53:47.903Z,7.30
2019-06-26T11:56:15.380Z,10.73
2019-06-26T11:58:43.617Z,6.90
2019-06-26T12:01:11.089Z,8.10
2019-06-26T12:03:38.546Z,6.87
2019-06-26T12:06:17.775Z,8.40
2019-06-26T12:08:33.758Z,8.07
2019-06-26T12:11:01.265Z,4.50
2019-06-26T12:13:28.734Z,5.27
2019-06-26T12:15:57.655Z,8.20
2019-06-26T12:18:26.500Z,6.67
2019-06-26T12:20:55.349Z,9.60
2019-06-26T12:23:22.875Z,7.57
2019-06-26T12:25:50.440Z,7.83
2019-06-26T12:28:17.923Z,6.27
2019-06-26T12:30:48.363Z,9.23
2019-06-26T12:33:15.901Z,6.27
2019-06-26T12:35:43.371Z,4.90
2019-06-26T12:38:12.345Z,4.57
2019-06-26T12:40:40.971Z,5.73
2019-06-26T12:43:09.240Z,4.63
2019-06-26T12:45:36.692Z,7.53
2019-06-26T12:48:04.255Z,8.23
2019-06-26T12:50:35.738Z,5.83
2019-06-26T12:52:59.188Z,7.33
2019-06-26T12:55:27.854Z,8.60
2019-06-26T12:58:08.365Z,8.90
2019-06-26T13:00:22.895Z,7.43
2019-06-26T13:02:50.363Z,5.87
2019-06-26T13:05:18.633Z,5.53
2019-06-26T13:07:46.101Z,5.07
2019-06-26T13:10:13.624Z,6.33
2019-06-26T13:12:45.623Z,7.30
2019-06-26T13:15:10.241Z,5.73
2019-06-26T13:17:37.704Z,4.53
2019-06-26T13:20:09.662Z,3.93
2019-06-26T13:22:34.689Z,5.17
2019-06-26T13:25:02.150Z,3.63
2019-06-26T13:27:30.367Z,5.60
2019-06-26T13:29:57.825Z,4.83
2019-06-26T13:32:25.291Z,7.23
2019-06-26T13:34:53.910Z,7.37
2019-06-26T13:37:22.617Z,6.87
2019-06-26T13:39:50.086Z,6.80
2019-06-26T13:42:18.717Z,5.63
2019-06-26T13:44:46.155Z,6.57
2019-06-26T13:47:14.600Z,8.87
2019-06-26T13:49:42.059Z,6.73
2019-06-26T13:52:09.618Z,7.33
2019-06-26T13:54:38.210Z,6.87
2019-06-26T13:57:05.672Z,5.03
2019-06-26T13:59:33.251Z,6.40
2019-06-26T14:02:01.528Z,8.23
2019-06-26T14:04:30.123Z,4.70
2019-06-26T14:06:57.579Z,5.20
2019-06-26T14:09:25.182Z,3.57
2019-06-26T14:11:52.685Z,4.00
2019-06-26T14:14:22.266Z,6.50
2019-06-26T14:16:50.272Z,4.50
2019-06-26T14:19:17.742Z,4.00
2019-06-26T14:21:45.327Z,4.73
2019-06-26T14:24:12.865Z,5.93
2019-06-26T14:26:41.449Z,5.47
2019-06-26T14:29:20.433Z,4.87
2019-06-26T14:31:38.333Z,6.60
2019-06-26T14:34:06.575Z,6.50
2019-06-26T14:36:34.056Z,3.73
2019-06-26T14:39:03.796Z,4.70
2019-06-26T14:41:33.240Z,4.93
2019-06-26T14:44:00.697Z,5.63
2019-06-26T14:46:28.207Z,4.83
2019-06-26T14:48:55.678Z,5.97
2019-06-26T14:51:23.239Z,3.60
2019-06-26T14:53:50.822Z,5.97
2019-06-26T14:56:18.309Z,7.27
2019-06-26T14:58:46.910Z,7.00
2019-06-26T15:01:15.555Z,5.53
2019-06-26T15:03:44.347Z,5.87
2019-06-26T15:06:16.602Z,4.17
2019-06-26T15:08:40.441Z,4.03
2019-06-26T15:11:07.994Z,5.07
2019-06-26T15:13:36.234Z,4.60
2019-06-26T15:16:03.694Z,4.20
2019-06-26T15:18:31.154Z,10.23
2019-06-26T15:20:58.656Z,4.60
2019-06-26T15:23:27.015Z,6.20
2019-06-26T15:25:54.494Z,5.90
2019-06-26T15:28:21.954Z,8.77
2019-06-26T15:30:50.634Z,6.80
2019-06-26T15:33:18.190Z,6.87
2019-06-26T15:35:45.641Z,6.77
2019-06-26T15:38:13.169Z,6.23
2019-06-26T15:40:40.796Z,6.43
2019-06-26T15:43:08.348Z,4.57
2019-06-26T15:45:35.837Z,5.23
2019-06-26T15:48:04.744Z,5.18
2019-06-26T15:50:32.235Z,5.13
2019-06-26T15:52:59.719Z,4.27
2019-06-26T15:55:27.302Z,4.80
2019-06-26T15:57:54.752Z,6.50
2019-06-26T16:00:23.409Z,5.30
2019-06-26T16:02:52.214Z,5.10
2019-06-26T16:05:19.702Z,6.13
2019-06-26T16:07:48.346Z,2.93
2019-06-26T16:10:15.910Z,4.90
2019-06-26T16:12:44.009Z,3.43
2019-06-26T16:15:11.474Z,5.27
2019-06-26T16:17:41.059Z,5.07
2019-06-26T16:20:08.594Z,3.87
2019-06-26T16:22:36.843Z,6.40
2019-06-26T16:25:04.340Z,3.97
2019-06-26T16:27:31.827Z,3.87
2019-06-26T16:29:59.375Z,3.67
2019-06-26T16:32:28.434Z,4.53
2019-06-26T16:34:55.919Z,2.57
2019-06-26T16:37:23.405Z,3.47
2019-06-26T16:39:51.841Z,3.23
2019-06-26T16:42:19.299Z,7.13
2019-06-26T16:44:46.752Z,5.73
2019-06-26T16:47:14.235Z,5.50
2019-06-26T16:49:41.800Z,6.73
2019-06-26T16:52:09.274Z,2.57
2019-06-26T16:54:36.762Z,3.87
2019-06-26T16:57:05.161Z,4.17
2019-06-26T16:59:32.579Z,4.63
2019-06-26T17:02:01.178Z,4.13
2019-06-26T17:04:29.430Z,2.40
2019-06-26T17:06:56.906Z,4.57
2019-06-26T17:09:25.989Z,5.33
2019-06-26T17:11:54.813Z,2.50
2019-06-26T17:14:22.288Z,3.40
2019-06-26T17:16:50.540Z,2.13
2019-06-26T17:19:18.541Z,2.90
2019-06-26T17:21:45.668Z,3.90
2019-06-26T17:24:13.229Z,3.73
2019-06-26T17:26:40.706Z,5.40
2019-06-26T17:29:08.947Z,4.10
2019-06-26T17:31:36.447Z,2.40
2019-06-26T17:34:04.020Z,3.50
2019-06-26T17:36:32.290Z,4.93
2019-06-26T17:39:01.251Z,4.37
2019-06-26T17:41:28.702Z,4.97
2019-06-26T17:43:56.160Z,3.80
2019-06-26T17:46:23.605Z,3.93
2019-06-26T17:48:52.424Z,2.60
2019-06-26T17:51:19.896Z,5.10
2019-06-26T17:53:47.489Z,4.83
2019-06-26T17:56:15.739Z,3.10
2019-06-26T17:58:43.228Z,2.63
2019-06-26T18:01:10.796Z,5.60
2019-06-26T18:03:39.481Z,3.43
2019-06-26T18:06:08.296Z,5.07
2019-06-26T18:08:36.794Z,4.20
2019-06-26T18:11:05.665Z,2.70
2019-06-26T18:13:34.571Z,2.47
2019-06-26T18:16:04.268Z,2.43
2019-06-26T18:18:33.267Z,3.77
2019-06-26T18:21:01.504Z,5.33
2019-06-26T18:23:37.833Z,4.53
2019-06-26T18:26:11.973Z,2.63
2019-06-26T18:28:25.142Z,4.17
2019-06-26T18:30:52.608Z,4.50
2019-06-26T18:33:21.256Z,2.60
2019-06-26T18:35:50.314Z,2.53
2019-06-26T18:38:19.213Z,3.43
2019-06-26T18:40:47.833Z,5.23
2019-06-26T18:43:15.341Z,3.00
2019-06-26T18:45:44.160Z,5.33
2019-06-26T18:48:12.973Z,3.40
2019-06-26T18:50:41.268Z,3.83
2019-06-26T18:53:10.114Z,3.53
2019-06-26T18:55:37.576Z,2.43
2019-06-26T18:58:06.503Z,2.80
2019-06-26T19:00:35.298Z,5.47
2019-06-26T19:03:04.644Z,2.23
2019-06-26T19:05:33.458Z,2.63
2019-06-26T19:08:03.225Z,4.77
2019-06-26T19:10:32.079Z,2.13
2019-06-26T19:13:00.913Z,2.50
2019-06-26T19:15:29.731Z,3.87
2019-06-26T19:17:58.548Z,4.03
2019-06-26T19:20:27.381Z,4.30
2019-06-26T19:22:56.195Z,4.40
2019-06-26T19:25:25.023Z,3.13
2019-06-26T19:27:53.957Z,3.77
2019-06-26T19:30:23.023Z,2.87
2019-06-26T19:32:52.650Z,6.57
2019-06-26T19:35:20.552Z,2.80
2019-06-26T19:37:48.989Z,5.13
2019-06-26T19:40:17.892Z,2.87
2019-06-26T19:42:46.795Z,3.27
2019-06-26T19:45:15.686Z,5.70
2019-06-26T19:47:43.246Z,6.23
2019-06-26T19:50:12.053Z,4.00
2019-06-26T19:52:40.870Z,2.97
2019-06-26T19:55:09.512Z,2.60
2019-06-26T19:57:38.215Z,4.63
2019-06-26T20:00:08.482Z,4.27
2019-06-26T20:02:35.961Z,4.53
2019-06-26T20:05:04.680Z,2.30
2019-06-26T20:07:33.527Z,3.37
2019-06-26T20:10:03.070Z,3.87
2019-06-26T20:12:32.028Z,3.83
2019-06-26T20:15:01.339Z,3.47
2019-06-26T20:17:30.199Z,4.10
2019-06-26T20:19:59.039Z,3.63
2019-06-26T20:22:27.865Z,3.13
2019-06-26T20:24:57.521Z,3.03
2019-06-26T20:27:25.780Z,3.23
2019-06-26T20:29:53.635Z,2.47
2019-06-26T20:32:22.483Z,1.77
2019-06-26T20:34:49.986Z,1.80
2019-06-26T20:37:17.453Z,2.20
2019-06-26T20:39:44.918Z,1.97
2019-06-26T20:42:12.427Z,2.73
2019-06-26T20:44:41.067Z,1.97
2019-06-26T20:47:09.653Z,3.03
2019-06-26T20:49:52.134Z,1.93
2019-06-26T20:52:05.953Z,3.30
2019-06-26T20:54:33.497Z,3.90
2019-06-26T20:57:02.523Z,3.00
2019-06-26T20:59:30.038Z,3.33
2019-06-26T21:01:57.542Z,3.27
2019-06-26T21:04:25.015Z,4.30
2019-06-26T21:06:52.519Z,3.47
2019-06-26T21:09:20.083Z,2.13
2019-06-26T21:11:47.545Z,3.23
2019-06-26T21:14:15.046Z,5.37
2019-06-26T21:16:44.009Z,2.83
2019-06-26T21:19:11.665Z,2.03
2019-06-26T21:21:39.238Z,3.47
2019-06-26T21:24:06.795Z,3.43
2019-06-26T21:26:34.268Z,1.70
2019-06-26T21:29:01.812Z,3.50
2019-06-26T21:31:29.385Z,4.27
2019-06-26T21:33:56.953Z,4.93
2019-06-26T21:36:24.517Z,3.27
2019-06-26T21:38:52.077Z,3.07
2019-06-26T21:41:20.774Z,3.10
2019-06-26T21:43:48.246Z,2.60
2019-06-26T21:46:15.722Z,4.67
2019-06-26T21:48:43.164Z,3.23
2019-06-26T21:51:11.395Z,4.37
2019-06-26T21:53:38.911Z,3.23
2019-06-26T21:56:06.505Z,4.90
2019-06-26T21:58:34.936Z,3.50
2019-06-26T22:01:02.527Z,3.97
2019-06-26T22:03:29.993Z,2.47
2019-06-26T22:05:57.455Z,2.00
2019-06-26T22:08:25.039Z,2.97
2019-06-26T22:10:52.575Z,3.37
2019-06-26T22:13:20.041Z,3.33
2019-06-26T22:15:48.719Z,8.63
2019-06-26T22:18:16.193Z,3.60
2019-06-26T22:20:43.746Z,5.07
2019-06-26T22:23:12.439Z,4.33
2019-06-26T22:25:50.434Z,3.57
2019-06-26T22:28:08.740Z,3.27
2019-06-26T22:30:37.569Z,3.43
2019-06-26T22:33:06.270Z,4.77
2019-06-26T22:35:33.848Z,2.30
2019-06-26T22:38:01.404Z,1.53
2019-06-26T22:40:30.388Z,2.53
2019-06-26T22:42:58.601Z,3.10
2019-06-26T22:45:27.316Z,3.90
2019-06-26T22:47:54.863Z,4.43
2019-06-26T22:50:22.390Z,2.67
2019-06-26T22:52:49.956Z,2.93
2019-06-26T22:55:17.425Z,3.70
2019-06-26T22:57:44.889Z,3.47
2019-06-26T23:00:13.697Z,3.47
2019-06-26T23:02:42.271Z,4.10
2019-06-26T23:05:11.258Z,3.40
2019-06-26T23:07:39.871Z,5.30
2019-06-26T23:10:08.104Z,5.30
2019-06-26T23:12:35.558Z,7.47
2019-06-26T23:15:05.092Z,4.93
2019-06-26T23:17:33.691Z,2.87
2019-06-26T23:20:02.377Z,2.50
2019-06-26T23:22:31.075Z,6.33
2019-06-26T23:24:59.669Z,3.13
2019-06-26T23:27:27.131Z,4.37
2019-06-26T23:29:55.402Z,3.57
2019-06-26T23:32:22.878Z,2.20
2019-06-26T23:34:51.554Z,2.67
2019-06-26T23:37:19.005Z,4.13
2019-06-26T23:39:46.568Z,3.27
2019-06-26T23:42:14.018Z,3.87
2019-06-26T23:44:42.663Z,3.93
2019-06-26T23:47:10.897Z,3.37
2019-06-26T23:49:39.613Z,5.83
2019-06-26T23:52:07.164Z,1.53
2019-06-26T23:54:34.608Z,5.40
2019-06-26T23:57:02.110Z,2.87
2019-06-26T23:59:29.563Z,2.33
